Time;durP1;ratioP1;P1;durP2;ratioP2;P2;SDS_P1;SDS_P2;PMS_P1;PMS_P2;Temp;Humidity;BMP_temperature;BMP_pressure;BME280_temperature;BME280_humidity;BME280_pressure;Samples;Min_cycle;Max_cycle;Signal;HPM_P1;HPM_P2
2022/09/03 00:02:35;;;;;;;1.83;1.10;;;17.00;99.90;;;;;;6111239;23;20109;-76
2022/09/03 00:05:19;;;;;;;1.27;1.10;;;16.90;99.90;;;;;;6086726;23;20032;-76
2022/09/03 00:08:23;;;;;;;1.67;1.20;;;16.90;99.90;;;;;;6086791;23;20074;-76
2022/09/03 00:10:58;;;;;;;1.85;1.30;;;16.80;99.90;;;;;;6087109;23;20426;-76
2022/09/03 00:13:34;;;;;;;1.90;1.67;;;16.80;99.90;;;;;;6087368;23;20025;-76
2022/09/03 00:16:04;;;;;;;2.10;1.58;;;16.70;99.90;;;;;;6062862;23;20632;-76
2022/09/03 00:18:31;;;;;;;1.40;1.30;;;16.70;99.90;;;;;;6086104;23;20112;-76
2022/09/03 00:21:07;;;;;;;1.38;1.27;;;16.70;99.90;;;;;;6063571;23;20022;-76
2022/09/03 00:23:37;;;;;;;1.73;1.45;;;16.60;99.90;;;;;;6064166;23;20045;-76
2022/09/03 00:26:13;;;;;;;1.92;1.48;;;16.60;99.90;;;;;;6087302;23;20037;-75
2022/09/03 00:28:53;;;;;;;1.67;1.35;;;16.50;99.90;;;;;;6064795;23;20026;-76
2022/09/03 00:31:28;;;;;;;1.30;1.20;;;16.40;99.90;;;;;;6089271;23;20022;-75
2022/09/03 00:34:05;;;;;;;1.60;1.42;;;16.50;99.90;;;;;;6064781;23;20584;-76
2022/09/03 00:36:50;;;;;;;1.98;1.52;;;16.40;99.90;;;;;;6065015;23;20053;-75
2022/09/03 00:39:19;;;;;;;1.90;1.48;;;16.30;99.90;;;;;;6112858;23;20080;-76
2022/09/03 00:41:58;;;;;;;2.10;1.70;;;16.30;99.90;;;;;;6115029;23;20068;-76
2022/09/03 00:45:06;;;;;;;1.58;1.25;;;16.30;99.90;;;;;;6088795;23;20053;-76
2022/09/03 00:48:08;;;;;;;1.73;1.40;;;16.30;99.90;;;;;;6064100;23;20054;-77
2022/09/03 00:50:38;;;;;;;1.63;1.45;;;16.10;99.90;;;;;;6014799;23;20022;-76
2022/09/03 00:53:17;;;;;;;2.05;1.70;;;16.10;99.90;;;;;;6113939;23;20054;-76
2022/09/03 00:55:59;;;;;;;1.50;1.20;;;16.10;99.90;;;;;;6065084;23;20052;-76
2022/09/03 00:58:29;;;;;;;1.73;1.43;;;16.00;99.90;;;;;;6089333;23;20026;-76
2022/09/03 01:00:56;;;;;;;2.08;1.67;;;16.10;99.90;;;;;;6087255;23;20260;-76
2022/09/03 01:03:27;;;;;;;1.70;1.40;;;16.10;99.90;;;;;;6087305;23;20054;-76
2022/09/03 01:06:06;;;;;;;1.65;1.25;;;16.10;99.90;;;;;;6064401;23;20036;-76
2022/09/03 01:08:49;;;;;;;1.67;1.35;;;16.20;99.90;;;;;;6088177;23;20049;-76
2022/09/03 01:11:29;;;;;;;;;;;16.20;99.90;;;;;;6090572;23;20084;-76
2022/09/03 01:14:01;;;;;;;1.35;1.10;;;16.30;99.90;;;;;;6087338;23;19929;-76
2022/09/03 01:16:45;;;;;;;1.20;1.10;;;16.30;99.90;;;;;;6088132;23;20030;-77
2022/09/03 01:19:27;;;;;;;1.25;1.15;;;16.30;99.90;;;;;;6087441;23;20573;-76
2022/09/03 01:22:19;;;;;;;1.40;1.23;;;16.40;99.90;;;;;;6113493;23;20084;-76
2022/09/03 01:24:58;;;;;;;1.58;1.38;;;16.40;99.90;;;;;;6114144;23;20050;-77
2022/09/03 01:27:57;;;;;;;1.50;1.20;;;16.40;99.90;;;;;;6113841;23;20053;-77
2022/09/03 01:30:24;;;;;;;1.38;1.17;;;16.40;99.90;;;;;;6113552;23;20037;-77
2022/09/03 01:33:00;;;;;;;1.20;1.05;;;16.50;99.90;;;;;;6089144;23;20045;-76
2022/09/03 01:35:52;;;;;;;1.48;1.30;;;16.50;99.90;;;;;;6116014;23;20030;-77
2022/09/03 01:38:37;;;;;;;1.40;1.30;;;16.50;99.90;;;;;;6088762;23;20057;-77
2022/09/03 01:44:05;;;;;;;1.98;1.30;;;16.60;99.90;;;;;;6093561;23;20058;-76
2022/09/03 01:46:39;;;;;;;1.88;1.55;;;16.70;99.90;;;;;;6115502;23;20113;-76
2022/09/03 01:49:21;;;;;;;1.80;1.30;;;16.70;99.90;;;;;;6090458;23;20021;-77
2022/09/03 01:52:08;;;;;;;1.67;1.45;;;16.70;99.90;;;;;;6090178;23;20081;-76
2022/09/03 01:54:51;;;;;;;1.90;1.42;;;16.70;99.90;;;;;;6090476;23;20048;-77
2022/09/03 01:58:09;;;;;;;2.00;1.43;;;16.80;99.90;;;;;;6116332;23;20037;-77
2022/09/03 02:00:37;;;;;;;1.55;1.45;;;16.80;99.90;;;;;;6026667;23;20048;-77
2022/09/03 02:03:05;;;;;;;1.52;1.40;;;16.80;99.90;;;;;;6089588;23;20033;-76
2022/09/03 02:05:34;;;;;;;1.70;1.60;;;16.80;99.90;;;;;;6089674;23;20374;-77
2022/09/03 02:08:05;;;;;;;1.95;1.63;;;16.80;99.90;;;;;;6090017;23;20057;-77
2022/09/03 02:10:49;;;;;;;2.10;1.88;;;16.80;99.90;;;;;;6067015;23;20040;-77
2022/09/03 02:13:40;;;;;;;2.42;1.60;;;16.80;99.90;;;;;;6090056;23;20100;-76
2022/09/03 02:16:15;;;;;;;2.67;1.90;;;16.80;99.90;;;;;;6051801;23;20080;-77
2022/09/03 02:18:50;;;;;;;1.98;1.52;;;16.70;99.90;;;;;;6088578;23;20061;-76
2022/09/03 02:21:19;;;;;;;1.40;1.30;;;16.60;99.90;;;;;;6089204;23;20050;-77
2022/09/03 02:23:46;;;;;;;2.13;1.92;;;16.60;99.90;;;;;;6065926;23;20058;-77
2022/09/03 02:26:15;;;;;;;1.60;1.50;;;16.50;99.90;;;;;;6089955;23;20576;-76
2022/09/03 02:28:42;;;;;;;2.90;2.10;;;16.40;99.90;;;;;;6088709;23;20089;-76
2022/09/03 02:31:08;;;;;;;2.17;1.80;;;16.30;99.90;;;;;;6089089;23;20091;-76
2022/09/03 02:33:37;;;;;;;2.00;1.70;;;16.30;99.90;;;;;;6088495;23;20084;-76
2022/09/03 02:36:05;;;;;;;2.30;1.90;;;16.20;99.90;;;;;;6066124;23;20054;-76
2022/09/03 02:38:32;;;;;;;2.35;1.83;;;16.20;99.90;;;;;;6064806;23;20053;-76
2022/09/03 02:40:59;;;;;;;2.40;1.73;;;16.10;99.90;;;;;;6089011;23;20474;-76
2022/09/03 02:43:30;;;;;;;2.45;2.10;;;16.10;99.90;;;;;;6088986;23;20057;-77
2022/09/03 02:46:00;;;;;;;2.22;2.03;;;16.10;99.90;;;;;;6089638;23;20050;-76
2022/09/03 02:48:28;;;;;;;2.08;1.88;;;16.10;99.90;;;;;;6088409;23;20029;-76
2022/09/03 02:50:55;;;;;;;2.10;1.90;;;16.10;99.90;;;;;;6114433;23;20410;-76
2022/09/03 02:53:22;;;;;;;1.90;1.65;;;16.10;99.90;;;;;;6088771;23;20069;-77
2022/09/03 02:55:49;;;;;;;2.10;1.75;;;16.10;99.90;;;;;;6089090;23;20032;-77
2022/09/03 02:58:15;;;;;;;2.20;2.00;;;16.10;99.90;;;;;;6115188;23;20045;-77
2022/09/03 03:00:42;;;;;;;2.08;1.65;;;16.20;99.90;;;;;;6114470;23;20528;-76
2022/09/03 03:03:09;;;;;;;2.17;1.60;;;16.30;99.90;;;;;;6113841;23;20026;-76
2022/09/03 03:05:50;;;;;;;2.10;1.90;;;16.40;99.90;;;;;;6089636;23;20077;-76
2022/09/03 03:08:20;;;;;;;2.50;1.85;;;16.40;99.90;;;;;;6088326;23;20097;-77
2022/09/03 03:10:48;;;;;;;2.03;1.65;;;16.40;99.90;;;;;;6089839;23;20064;-76
2022/09/03 03:13:15;;;;;;;1.85;1.60;;;16.50;99.90;;;;;;6114899;23;20049;-76
2022/09/03 03:15:42;;;;;;;1.60;1.45;;;16.50;99.90;;;;;;6065408;23;20049;-76
2022/09/03 03:18:12;;;;;;;1.83;1.55;;;16.60;99.90;;;;;;6088222;23;20025;-77
2022/09/03 03:20:40;;;;;;;1.83;1.45;;;16.60;99.90;;;;;;6089618;23;20061;-76
2022/09/03 03:23:07;;;;;;;1.60;1.50;;;16.60;99.90;;;;;;6065710;23;20060;-76
2022/09/03 03:25:35;;;;;;;2.30;2.10;;;16.70;99.90;;;;;;6089806;23;20065;-77
2022/09/03 03:28:03;;;;;;;1.80;1.60;;;16.70;99.90;;;;;;6089345;23;20064;-77
2022/09/03 03:30:30;;;;;;;1.92;1.73;;;16.80;99.90;;;;;;6089094;23;20104;-76
2022/09/03 03:32:57;;;;;;;2.38;1.73;;;16.80;99.90;;;;;;6089184;23;20371;-76
2022/09/03 03:35:24;;;;;;;1.58;1.33;;;16.80;99.90;;;;;;6115005;23;20026;-77
2022/09/03 03:37:50;;;;;;;1.65;1.45;;;16.80;99.90;;;;;;6065400;23;20401;-77
2022/09/03 03:40:19;;;;;;;2.03;1.83;;;16.80;99.90;;;;;;6115362;23;20029;-76
2022/09/03 03:42:45;;;;;;;1.48;1.35;;;16.80;99.90;;;;;;6115227;23;20025;-76
2022/09/03 03:45:12;;;;;;;2.03;1.65;;;16.90;99.90;;;;;;6114720;23;20026;-76
2022/09/03 03:47:39;;;;;;;1.85;1.60;;;16.90;99.90;;;;;;6114162;23;20057;-76
2022/09/03 03:50:06;;;;;;;2.00;1.63;;;16.90;99.90;;;;;;6088469;23;20214;-76
2022/09/03 03:52:33;;;;;;;1.73;1.55;;;16.90;99.90;;;;;;6064874;23;20068;-76
2022/09/03 03:55:00;;;;;;;2.20;1.80;;;16.90;99.90;;;;;;6115042;23;20045;-76
2022/09/03 03:57:29;;;;;;;2.17;1.70;;;16.90;99.90;;;;;;6115060;23;20077;-77
2022/09/03 03:59:55;;;;;;;2.25;1.98;;;17.00;99.90;;;;;;6088628;23;20053;-76
2022/09/03 04:02:22;;;;;;;2.10;1.85;;;17.00;99.90;;;;;;6087888;23;20026;-77
2022/09/03 04:04:49;;;;;;;2.33;2.03;;;17.00;99.90;;;;;;6089236;23;20203;-76
2022/09/03 04:07:16;;;;;;;2.10;1.90;;;17.00;99.90;;;;;;6113865;23;20944;-76
2022/09/03 04:09:42;;;;;;;2.30;1.98;;;17.00;99.90;;;;;;6115109;23;20492;-76
2022/09/03 04:12:09;;;;;;;2.20;1.80;;;17.00;99.90;;;;;;6089297;23;20507;-76
2022/09/03 04:14:36;;;;;;;2.55;2.10;;;17.00;99.90;;;;;;6088878;23;20080;-76
2022/09/03 04:17:03;;;;;;;2.47;2.15;;;17.00;99.90;;;;;;6114091;23;20105;-77
2022/09/03 04:19:30;;;;;;;2.15;1.95;;;17.00;99.90;;;;;;6114936;23;20026;-76
2022/09/03 04:21:57;;;;;;;2.58;2.35;;;17.00;99.90;;;;;;6115173;23;20316;-76
2022/09/03 04:24:25;;;;;;;2.28;2.08;;;17.00;99.90;;;;;;6114763;23;20132;-76
2022/09/03 04:26:53;;;;;;;3.45;2.47;;;17.10;99.90;;;;;;6088817;23;20116;-76
2022/09/03 04:29:20;;;;;;;2.45;2.22;;;17.10;99.90;;;;;;6088165;23;20553;-76
2022/09/03 04:34:32;;;;;;;2.60;2.40;;;17.00;99.90;;;;;;6115006;23;20348;-76
2022/09/03 04:36:59;;;;;;;3.00;2.55;;;17.00;99.90;;;;;;6064562;23;20076;-76
2022/09/03 04:39:26;;;;;;;2.70;2.33;;;17.00;99.90;;;;;;6114840;23;20101;-76
2022/09/03 04:41:53;;;;;;;3.17;2.50;;;17.00;99.90;;;;;;6088732;23;20582;-76
2022/09/03 04:44:20;;;;;;;2.33;2.13;;;17.00;99.90;;;;;;6089076;23;20109;-76
2022/09/03 04:46:47;;;;;;;2.80;2.50;;;16.90;99.90;;;;;;6087987;23;20034;-76
2022/09/03 04:49:14;;;;;;;2.17;1.98;;;16.80;99.90;;;;;;6064136;23;20057;-77
2022/09/03 04:51:41;;;;;;;2.55;2.35;;;16.80;99.90;;;;;;6088690;23;20026;-76
2022/09/03 04:54:09;;;;;;;2.45;2.25;;;16.80;99.90;;;;;;6089706;23;20178;-76
2022/09/03 04:56:37;;;;;;;2.75;2.55;;;16.70;99.90;;;;;;6089352;23;20026;-76
2022/09/03 04:59:05;;;;;;;3.08;2.70;;;16.60;99.90;;;;;;6089437;23;20100;-76
2022/09/03 05:01:33;;;;;;;2.78;2.58;;;16.60;99.90;;;;;;6087959;23;20144;-76
2022/09/03 05:04:00;;;;;;;2.95;2.65;;;16.60;99.90;;;;;;6086177;23;20036;-77
2022/09/03 05:06:27;;;;;;;2.50;2.15;;;16.60;99.90;;;;;;6062666;23;20064;-77
2022/09/03 05:08:54;;;;;;;3.05;2.75;;;16.60;99.90;;;;;;6086698;23;20504;-77
2022/09/03 05:11:22;;;;;;;3.83;3.42;;;16.60;99.90;;;;;;6088804;23;20052;-77
2022/09/03 05:13:50;;;;;;;3.10;2.80;;;16.70;99.90;;;;;;6088096;23;20034;-77
2022/09/03 05:16:17;;;;;;;2.95;2.65;;;16.70;99.90;;;;;;6088957;23;20022;-76
2022/09/03 05:18:44;;;;;;;3.05;2.75;;;16.60;99.90;;;;;;6088556;23;20029;-76
2022/09/03 05:21:12;;;;;;;3.30;3.00;;;16.60;99.90;;;;;;6089551;23;20384;-76
2022/09/03 05:23:41;;;;;;;3.47;3.17;;;16.60;99.90;;;;;;6091355;23;20038;-76
2022/09/03 05:26:10;;;;;;;2.78;2.45;;;16.50;99.90;;;;;;6068655;23;20612;-76
2022/09/03 05:28:38;;;;;;;2.50;2.30;;;16.50;99.90;;;;;;6091786;23;20030;-77
2022/09/03 05:31:09;;;;;;;2.97;2.65;;;16.40;99.90;;;;;;6091398;23;20057;-76
2022/09/03 05:33:37;;;;;;;3.88;3.03;;;16.30;99.90;;;;;;6090100;23;20029;-76
2022/09/03 05:36:07;;;;;;;3.05;2.75;;;16.30;99.90;;;;;;6117546;23;20029;-76
2022/09/03 05:38:34;;;;;;;3.10;2.50;;;16.30;99.90;;;;;;6091694;23;20466;-76
2022/09/03 05:41:05;;;;;;;3.03;2.72;;;16.30;99.90;;;;;;6091788;23;20056;-76
2022/09/03 05:43:33;;;;;;;3.05;2.50;;;16.30;99.90;;;;;;6091120;23;20053;-76
2022/09/03 05:46:04;;;;;;;3.63;3.00;;;16.30;99.90;;;;;;6068088;23;20041;-76
2022/09/03 05:48:35;;;;;;;3.08;2.72;;;16.20;99.90;;;;;;6115961;23;20543;-77
2022/09/03 05:51:03;;;;;;;3.40;3.10;;;16.20;99.90;;;;;;6091733;23;20026;-76
2022/09/03 05:53:30;;;;;;;2.83;2.53;;;16.20;99.90;;;;;;6090568;23;20069;-76
2022/09/03 05:55:57;;;;;;;2.55;2.35;;;16.20;99.90;;;;;;6091743;23;20105;-77
2022/09/03 05:58:25;;;;;;;2.78;2.55;;;16.20;99.90;;;;;;6090954;23;20485;-76
2022/09/03 06:00:52;;;;;;;2.97;2.67;;;16.20;99.90;;;;;;6090174;23;20174;-77
2022/09/03 06:03:19;;;;;;;2.97;2.67;;;16.20;99.90;;;;;;6086467;23;20030;-76
2022/09/03 06:05:50;;;;;;;3.05;2.75;;;16.20;99.90;;;;;;6087779;23;20092;-76
2022/09/03 06:08:17;;;;;;;4.43;3.55;;;16.20;99.90;;;;;;6090953;23;20026;-76
2022/09/03 06:10:44;;;;;;;3.05;2.75;;;16.20;99.90;;;;;;6091813;23;20022;-77
2022/09/03 06:13:11;;;;;;;2.97;2.67;;;16.20;99.90;;;;;;6117408;23;20072;-76
2022/09/03 06:15:37;;;;;;;3.30;3.00;;;16.20;99.90;;;;;;6117000;23;20451;-76
2022/09/03 06:18:04;;;;;;;3.30;3.00;;;16.20;99.90;;;;;;6117390;23;20029;-77
2022/09/03 06:20:32;;;;;;;3.30;2.72;;;16.20;99.90;;;;;;6117054;23;20022;-77
2022/09/03 06:23:03;;;;;;;3.08;2.78;;;16.20;99.90;;;;;;6090492;23;20053;-77
2022/09/03 06:25:30;;;;;;;3.33;2.72;;;16.20;99.90;;;;;;6112836;23;20106;-76
2022/09/03 06:27:58;;;;;;;3.17;2.80;;;16.30;99.90;;;;;;6087233;23;20025;-77
2022/09/03 06:30:25;;;;;;;3.40;3.10;;;16.30;99.90;;;;;;6065225;23;20025;-77
2022/09/03 06:32:52;;;;;;;3.03;2.72;;;16.30;99.90;;;;;;6115737;23;20030;-76
2022/09/03 06:35:19;;;;;;;3.00;2.65;;;16.30;99.90;;;;;;6090229;23;20026;-76
2022/09/03 06:37:46;;;;;;;3.03;2.72;;;16.40;99.90;;;;;;6090735;23;20034;-76
2022/09/03 06:40:19;;;;;;;3.08;2.78;;;16.40;99.90;;;;;;6117281;23;20026;-76
2022/09/03 06:42:55;;;;;;;2.70;2.45;;;16.50;99.90;;;;;;6092531;23;20065;-76
2022/09/03 06:45:21;;;;;;;2.97;2.65;;;16.60;99.90;;;;;;6090846;23;20391;-77
2022/09/03 06:47:48;;;;;;;3.22;2.92;;;16.60;99.90;;;;;;6090180;23;20478;-76
2022/09/03 06:50:17;;;;;;;3.25;2.95;;;16.70;99.90;;;;;;6090895;23;20025;-77
2022/09/03 06:52:43;;;;;;;3.40;2.95;;;16.70;99.90;;;;;;6091345;23;20410;-76
2022/09/03 06:55:10;;;;;;;3.22;2.92;;;16.80;99.90;;;;;;6091269;23;20053;-76
2022/09/03 06:57:37;;;;;;;3.08;2.78;;;16.90;99.90;;;;;;6116969;23;20105;-77
2022/09/03 07:00:04;;;;;;;3.20;2.78;;;16.90;99.90;;;;;;6090588;23;20508;-75
2022/09/03 07:02:32;;;;;;;3.22;2.90;;;17.00;99.90;;;;;;6111523;23;20102;-74
2022/09/03 07:04:59;;;;;;;3.50;3.17;;;17.10;99.90;;;;;;6085352;23;20026;-74
2022/09/03 07:07:26;;;;;;;3.00;2.67;;;17.10;99.90;;;;;;6109604;23;20049;-82
2022/09/03 07:09:52;;;;;;;3.28;2.97;;;17.20;99.90;;;;;;6061827;23;20030;-76
2022/09/03 07:12:19;;;;;;;3.33;3.03;;;17.30;99.90;;;;;;6085442;23;20068;-77
2022/09/03 07:14:46;;;;;;;3.22;2.92;;;17.30;99.90;;;;;;6111455;23;20030;-76
2022/09/03 07:17:16;;;;;;;3.20;2.90;;;17.40;99.90;;;;;;6111768;23;20026;-76
2022/09/03 07:19:43;;;;;;;3.17;2.60;;;17.50;99.90;;;;;;6083842;23;20053;-76
2022/09/03 07:22:10;;;;;;;3.33;3.03;;;17.60;99.90;;;;;;6079703;23;20057;-75
2022/09/03 07:24:37;;;;;;;2.55;2.35;;;17.70;99.90;;;;;;6108675;23;20527;-75
2022/09/03 07:27:04;;;;;;;2.85;2.55;;;17.80;99.90;;;;;;6079690;23;20120;-76
2022/09/03 07:29:31;;;;;;;2.60;2.40;;;17.90;99.90;;;;;;6062170;23;20045;-75
2022/09/03 07:31:58;;;;;;;2.60;2.38;;;18.00;99.90;;;;;;6113396;23;20120;-75
2022/09/03 07:34:24;;;;;;;2.50;2.28;;;18.20;99.90;;;;;;6115146;23;20022;-75
2022/09/03 07:36:52;;;;;;;2.63;2.20;;;18.30;99.90;;;;;;6064019;23;20473;-75
2022/09/03 07:39:19;;;;;;;2.50;2.15;;;18.40;99.90;;;;;;6085831;23;20053;-75
2022/09/03 07:41:46;;;;;;;2.25;2.00;;;18.60;99.90;;;;;;6111621;23;20489;-75
2022/09/03 07:44:14;;;;;;;2.13;1.83;;;18.70;99.90;;;;;;6084702;23;20530;-75
2022/09/03 07:46:44;;;;;;;2.15;1.50;;;18.80;99.90;;;;;;6086811;23;20335;-76
2022/09/03 07:49:11;;;;;;;1.40;1.20;;;19.00;99.90;;;;;;6086900;23;20022;-75
2022/09/03 07:51:38;;;;;;;1.73;1.27;;;19.10;99.90;;;;;;6060433;23;20390;-75
2022/09/03 07:54:08;;;;;;;1.52;1.20;;;19.10;99.90;;;;;;6060488;23;20037;-75
2022/09/03 07:56:35;;;;;;;1.70;1.40;;;19.30;99.90;;;;;;6088791;23;20477;-76
2022/09/03 07:59:03;;;;;;;1.63;1.05;;;19.30;99.90;;;;;;6065335;23;20026;-76
2022/09/03 08:01:31;;;;;;;1.25;1.15;;;19.40;99.90;;;;;;6064779;23;20097;-75
2022/09/03 08:03:58;;;;;;;1.25;1.15;;;19.50;99.90;;;;;;6081912;23;20375;-76
2022/09/03 08:06:26;;;;;;;1.67;1.30;;;19.60;99.90;;;;;;6082306;23;20081;-75
2022/09/03 08:09:03;;;;;;;1.15;1.00;;;19.70;99.90;;;;;;6082087;23;20145;-76
2022/09/03 08:11:42;;;;;;;1.20;1.00;;;19.80;99.90;;;;;;6059552;23;20026;-75
2022/09/03 08:14:10;;;;;;;0.90;0.80;;;19.90;99.90;;;;;;6059021;23;20030;-79
2022/09/03 08:16:41;;;;;;;1.38;1.25;;;20.00;99.90;;;;;;6058588;23;20876;-78
2022/09/03 08:19:09;;;;;;;2.00;1.80;;;20.00;99.90;;;;;;6058415;23;20100;-78
2022/09/03 08:21:36;;;;;;;1.80;1.60;;;20.10;99.90;;;;;;6082880;23;20033;-77
2022/09/03 08:24:03;;;;;;;1.60;1.40;;;20.20;99.90;;;;;;6058030;23;20032;-77
2022/09/03 08:26:31;;;;;;;1.95;1.60;;;20.30;99.90;;;;;;6083054;23;20025;-78
2022/09/03 08:28:58;;;;;;;1.50;1.25;;;20.30;99.90;;;;;;6082417;23;20096;-78
2022/09/03 08:31:26;;;;;;;1.70;1.27;;;20.40;99.90;;;;;;6081891;23;20281;-77
2022/09/03 08:33:54;;;;;;;1.98;1.55;;;20.50;99.90;;;;;;6081848;23;20061;-78
2022/09/03 08:36:23;;;;;;;1.30;1.15;;;20.50;99.90;;;;;;6082754;23;20065;-77
2022/09/03 08:38:53;;;;;;;1.45;1.30;;;20.60;99.90;;;;;;6083504;23;20125;-78
2022/09/03 08:41:23;;;;;;;1.30;1.10;;;20.70;99.90;;;;;;6059575;23;20097;-78
2022/09/03 08:43:56;;;;;;;1.77;1.52;;;20.90;99.90;;;;;;6081788;23;20076;-78
2022/09/03 08:47:01;;;;;;;1.63;1.38;;;21.00;99.90;;;;;;6084675;23;20054;-78
2022/09/03 08:49:37;;;;;;;1.48;1.30;;;21.20;99.90;;;;;;6046150;23;20022;-78
2022/09/03 08:52:07;;;;;;;2.10;1.85;;;21.20;99.90;;;;;;6084179;23;20065;-77
2022/09/03 08:54:34;;;;;;;1.75;1.52;;;21.30;99.90;;;;;;6084508;23;20025;-77
2022/09/03 08:57:02;;;;;;;1.50;1.27;;;21.30;99.90;;;;;;6060115;23;20110;-77
2022/09/03 08:59:29;;;;;;;1.55;1.23;;;21.50;99.90;;;;;;6084325;23;20029;-77
2022/09/03 09:02:03;;;;;;;1.50;1.20;;;21.60;99.90;;;;;;6060603;23;20033;-77
2022/09/03 09:04:47;;;;;;;1.42;1.25;;;21.60;99.90;;;;;;6084052;23;20048;-78
2022/09/03 09:07:24;;;;;;;1.10;0.90;;;21.70;99.90;;;;;;6083006;23;20032;-78
2022/09/03 09:10:03;;;;;;;1.52;1.38;;;21.80;99.90;;;;;;6084390;23;20254;-78
2022/09/03 09:12:52;;;;;;;1.15;1.05;;;21.90;99.90;;;;;;6110278;23;20399;-78
2022/09/03 09:15:27;;;;;;;1.60;1.50;;;21.90;99.90;;;;;;6084064;23;20454;-77
2022/09/03 09:17:57;;;;;;;1.75;1.50;;;21.90;99.90;;;;;;6083333;23;20030;-77
2022/09/03 09:20:55;;;;;;;1.15;0.98;;;21.90;99.90;;;;;;6110226;23;20069;-77
2022/09/03 09:23:34;;;;;;;1.70;1.40;;;22.00;99.90;;;;;;6083681;23;20022;-77
2022/09/03 09:26:05;;;;;;;1.20;1.10;;;22.10;99.90;;;;;;6084073;23;20131;-77
2022/09/03 09:28:39;;;;;;;2.40;1.40;;;22.40;99.90;;;;;;6083940;23;20092;-77
2022/09/03 09:31:07;;;;;;;1.65;1.38;;;22.40;99.90;;;;;;6085057;23;20301;-77
2022/09/03 09:33:36;;;;;;;1.83;1.48;;;22.50;99.90;;;;;;6035953;23;20077;-76
2022/09/03 09:36:08;;;;;;;1.30;1.10;;;22.60;99.90;;;;;;6108599;23;20065;-77
2022/09/03 09:38:36;;;;;;;1.75;1.42;;;22.70;99.90;;;;;;6083316;23;20483;-77
2022/09/03 09:41:09;;;;;;;1.08;0.98;;;22.80;99.90;;;;;;6060508;23;20120;-77
2022/09/03 09:43:37;;;;;;;1.35;1.08;;;22.90;99.90;;;;;;6083025;23;20511;-76
2022/09/03 09:46:21;;;;;;;2.00;1.80;;;23.00;99.90;;;;;;6087127;23;20045;-77
2022/09/03 09:48:53;;;;;;;1.27;1.08;;;23.10;99.90;;;;;;6088004;23;20034;-77
2022/09/03 09:51:25;;;;;;;1.20;1.10;;;23.20;99.90;;;;;;6064754;23;20057;-76
2022/09/03 09:54:11;;;;;;;1.05;0.95;;;23.30;99.90;;;;;;6061999;23;20068;-76
2022/09/03 09:56:39;;;;;;;1.00;0.82;;;23.30;99.90;;;;;;6108944;23;20026;-77
2022/09/03 09:59:07;;;;;;;1.00;0.82;;;23.50;99.90;;;;;;6060577;23;20026;-78
2022/09/03 10:01:37;;;;;;;2.28;1.38;;;23.70;99.90;;;;;;6083734;23;20047;-77
2022/09/03 10:04:12;;;;;;;1.33;1.10;;;23.70;99.90;;;;;;6082637;23;20709;-78
2022/09/03 10:06:57;;;;;;;1.70;1.20;;;23.70;99.90;;;;;;6060214;23;20026;-77
2022/09/03 10:09:26;;;;;;;1.05;0.98;;;23.60;99.90;;;;;;6086639;23;20410;-78
2022/09/03 10:12:19;;;;;;;0.80;0.73;;;23.60;99.90;;;;;;6084543;23;20291;-77
2022/09/03 10:14:54;;;;;;;1.33;0.90;;;23.70;99.90;;;;;;6109213;23;20070;-78
2022/09/03 10:17:46;;;;;;;1.27;0.90;;;23.80;99.90;;;;;;6083314;23;20113;-78
2022/09/03 10:20:30;;;;;;;1.02;0.90;;;24.00;99.90;;;;;;6083136;23;20159;-78
2022/09/03 10:23:17;;;;;;;1.20;0.93;;;24.00;99.90;;;;;;6061367;23;20418;-77
2022/09/03 10:26:07;;;;;;;1.52;1.05;;;23.90;99.90;;;;;;6084263;23;20029;-77
2022/09/03 10:28:38;;;;;;;1.52;1.10;;;23.90;99.90;;;;;;6059798;23;20053;-77
2022/09/03 10:31:17;;;;;;;1.25;1.10;;;24.10;99.90;;;;;;6059534;23;20133;-77
2022/09/03 10:34:05;;;;;;;1.38;1.17;;;24.10;99.90;;;;;;6082369;23;20065;-77
2022/09/03 10:36:50;;;;;;;1.10;0.95;;;23.90;99.90;;;;;;6083601;23;20445;-77
2022/09/03 10:39:29;;;;;;;1.73;1.40;;;24.00;99.90;;;;;;6110201;23;20025;-78
2022/09/03 10:42:06;;;;;;;1.30;1.20;;;24.00;99.90;;;;;;6110088;23;20033;-79
2022/09/03 10:44:45;;;;;;;1.52;1.25;;;24.00;99.90;;;;;;6058828;23;20030;-79
2022/09/03 10:47:36;;;;;;;1.30;1.10;;;24.00;99.90;;;;;;6060574;23;20026;-79
2022/09/03 10:50:03;;;;;;;1.10;1.00;;;24.10;99.90;;;;;;6060038;23;20089;-79
2022/09/03 10:52:43;;;;;;;1.10;0.90;;;24.00;99.90;;;;;;6083371;23;20360;-79
2022/09/03 10:55:22;;;;;;;1.08;0.98;;;24.10;99.90;;;;;;6083919;23;20100;-79
2022/09/03 10:58:04;;;;;;;0.90;0.82;;;24.20;99.90;;;;;;6083738;23;20029;-79
2022/09/03 11:00:31;;;;;;;0.73;0.67;;;24.20;99.90;;;;;;6082784;23;20296;-79
2022/09/03 11:03:23;;;;;;;0.70;0.70;;;24.20;99.90;;;;;;6082605;23;20087;-79
2022/09/03 11:06:19;;;;;;;1.48;1.10;;;24.40;99.90;;;;;;6109202;23;20022;-79
2022/09/03 11:08:52;;;;;;;1.10;0.90;;;24.60;99.90;;;;;;6077869;23;20026;-79
2022/09/03 11:11:37;;;;;;;0.70;0.70;;;24.60;99.90;;;;;;6060028;23;20026;-79
2022/09/03 11:14:08;;;;;;;0.75;0.75;;;24.90;99.90;;;;;;6083251;23;20050;-79
2022/09/03 11:16:50;;;;;;;0.87;0.80;;;25.10;99.90;;;;;;6083482;23;20032;-79
2022/09/03 11:19:18;;;;;;;1.20;0.98;;;25.00;99.90;;;;;;6082615;23;20897;-79
2022/09/03 11:21:44;;;;;;;0.68;0.65;;;25.10;99.90;;;;;;6059401;23;20105;-78
2022/09/03 11:24:14;;;;;;;1.40;0.90;;;25.30;99.90;;;;;;6059711;23;20407;-79
2022/09/03 11:26:43;;;;;;;0.77;0.70;;;25.60;99.90;;;;;;6108948;23;20164;-79
2022/09/03 11:29:20;;;;;;;0.70;0.68;;;25.70;99.90;;;;;;6083209;23;20026;-78
2022/09/03 11:31:56;;;;;;;1.08;0.90;;;25.90;99.90;;;;;;6057646;23;20025;-78
2022/09/03 11:34:26;;;;;;;0.93;0.73;;;26.10;99.90;;;;;;6083092;23;20029;-78
2022/09/03 11:37:25;;;;;;;0.60;0.60;;;25.80;99.90;;;;;;6108672;23;20022;-78
2022/09/03 11:39:57;;;;;;;0.75;0.63;;;26.00;99.90;;;;;;6078281;23;20049;-78
2022/09/03 11:42:36;;;;;;;0.70;0.70;;;26.10;99.90;;;;;;6082933;23;20025;-78
2022/09/03 11:45:23;;;;;;;0.77;0.70;;;26.40;99.90;;;;;;6083197;23;20088;-78
2022/09/03 11:47:50;;;;;;;0.70;0.70;;;26.50;99.90;;;;;;6081702;23;20068;-78
2022/09/03 11:50:20;;;;;;;0.80;0.80;;;26.70;99.90;;;;;;6058881;23;20029;-78
2022/09/03 11:52:52;;;;;;;0.88;0.70;;;26.70;99.90;;;;;;6107951;23;20129;-78
2022/09/03 11:55:32;;;;;;;0.85;0.80;;;26.90;99.90;;;;;;6058146;23;20111;-78
2022/09/03 11:58:28;;;;;;;0.60;0.60;;;27.00;99.90;;;;;;6084149;23;20057;-79
2022/09/03 12:00:56;;;;;;;0.65;0.65;;;27.10;99.90;;;;;;6080863;23;20329;-79
2022/09/03 12:03:28;;;;;;;0.60;0.60;;;27.30;99.90;;;;;;6082779;23;20089;-79
2022/09/03 12:06:26;;;;;;;0.50;0.50;;;27.30;99.90;;;;;;6085217;23;20029;-79
2022/09/03 12:09:29;;;;;;;0.82;0.60;;;27.40;99.90;;;;;;6086164;23;20370;-78
2022/09/03 12:13:00;;;;;;;0.82;0.50;;;27.40;99.90;;;;;;6067038;23;20470;-78
2022/09/03 12:15:45;;;;;;;0.82;0.70;;;27.40;99.90;;;;;;6021523;23;20027;-78
2022/09/03 12:18:24;;;;;;;1.20;0.60;;;27.20;99.90;;;;;;6020664;23;20325;-80
2022/09/03 12:20:54;;;;;;;1.08;0.82;;;27.10;99.90;;;;;;6067495;23;20331;-78
2022/09/03 12:23:49;;;;;;;0.70;0.68;;;27.00;99.90;;;;;;6084668;23;20356;-79
2022/09/03 12:26:18;;;;;;;0.60;0.60;;;27.20;99.90;;;;;;6104534;23;20434;-78
2022/09/03 12:28:47;;;;;;;0.98;0.90;;;27.20;99.90;;;;;;6087216;23;20030;-79
2022/09/03 12:31:22;;;;;;;0.88;0.80;;;27.10;99.90;;;;;;6088081;23;20472;-78
2022/09/03 12:33:50;;;;;;;0.80;0.70;;;27.40;99.90;;;;;;6064232;23;20030;-80
2022/09/03 12:36:21;;;;;;;0.60;0.60;;;27.60;99.90;;;;;;6064321;23;20029;-78
2022/09/03 12:38:49;;;;;;;0.80;0.73;;;27.60;99.90;;;;;;6088559;23;20018;-81
2022/09/03 12:41:36;;;;;;;0.60;0.60;;;27.60;99.90;;;;;;6092143;23;20026;-78
2022/09/03 12:44:03;;;;;;;0.50;0.50;;;27.70;99.90;;;;;;6088599;23;20026;-79
2022/09/03 12:46:31;;;;;;;0.60;0.60;;;27.60;99.90;;;;;;6086774;23;20174;-79
2022/09/03 12:49:04;;;;;;;0.60;0.60;;;27.80;99.90;;;;;;6084089;23;20032;-80
2022/09/03 12:51:52;;;;;;;0.50;0.50;;;27.90;99.90;;;;;;6068808;23;20178;-79
2022/09/03 12:54:23;;;;;;;0.70;0.60;;;27.90;99.90;;;;;;6085083;23;20034;-79
2022/09/03 12:56:54;;;;;;;0.77;0.70;;;28.00;99.90;;;;;;6083638;23;20088;-79
2022/09/03 12:59:21;;;;;;;0.50;0.50;;;28.10;99.90;;;;;;6084392;23;20033;-79
2022/09/03 13:01:51;;;;;;;0.70;0.70;;;28.50;99.90;;;;;;6058675;23;20041;-79
2022/09/03 13:04:28;;;;;;;0.98;0.90;;;29.00;99.90;;;;;;6083544;23;20080;-79
2022/09/03 13:07:02;;;;;;;0.60;0.60;;;29.20;99.90;;;;;;6084308;23;20092;-80
2022/09/03 13:09:29;;;;;;;0.75;0.75;;;29.30;99.90;;;;;;6085312;23;20036;-80
2022/09/03 13:11:58;;;;;;;0.50;0.50;;;29.50;99.90;;;;;;6084511;23;20029;-79
2022/09/03 13:14:25;;;;;;;0.52;0.52;;;29.40;99.90;;;;;;6060300;23;20128;-79
2022/09/03 13:16:56;;;;;;;0.50;0.50;;;29.70;99.90;;;;;;6082406;23;20419;-80
2022/09/03 13:19:59;;;;;;;0.43;0.43;;;30.20;99.80;;;;;;6083985;23;20358;-80
2022/09/03 13:22:32;;;;;;;0.40;0.40;;;30.30;98.80;;;;;;6083573;23;20470;-80
2022/09/03 13:25:46;;;;;;;0.82;0.60;;;30.60;98.80;;;;;;6083988;23;20485;-79